Time;durP1;ratioP1;P1;durP2;ratioP2;P2;SDS_P1;SDS_P2;PMS_P1;PMS_P2;Temp;Humidity;BMP_temperature;BMP_pressure;BME280_temperature;BME280_humidity;BME280_pressure;Samples;Min_cycle;Max_cycle;Signal;HPM_P1;HPM_P2
2021/03/04 00:00:27;;;;;;;31.07;22.00;;;9.20;99.90;;;;;;4970977;28;20269;-75
2021/03/04 00:02:54;;;;;;;34.77;20.40;;;9.20;99.90;;;;;;4970294;28;20221;-76
2021/03/04 00:05:20;;;;;;;32.63;19.93;;;9.30;99.90;;;;;;4970573;28;20209;-75
2021/03/04 00:07:47;;;;;;;28.33;19.60;;;9.20;99.90;;;;;;4971118;28;20217;-75
2021/03/04 00:10:15;;;;;;;33.83;21.30;;;9.20;99.90;;;;;;4970663;28;20600;-76
2021/03/04 00:12:42;;;;;;;31.13;19.47;;;9.30;99.90;;;;;;4971384;28;20209;-76
2021/03/04 00:15:11;;;;;;;25.97;18.33;;;9.20;99.90;;;;;;4971039;28;20246;-76
2021/03/04 00:17:38;;;;;;;42.17;21.57;;;9.20;99.90;;;;;;4970948;28;20579;-74
2021/03/04 00:20:07;;;;;;;26.87;19.17;;;9.30;99.90;;;;;;4971340;28;20237;-76
2021/03/04 00:22:34;;;;;;;28.00;19.57;;;9.30;99.90;;;;;;4971743;28;20716;-75
2021/03/04 00:25:01;;;;;;;41.27;22.33;;;9.20;99.90;;;;;;4974858;28;20216;-76
2021/03/04 00:27:27;;;;;;;26.77;18.63;;;9.20;99.90;;;;;;4974812;28;20210;-77
2021/03/04 00:29:54;;;;;;;27.97;19.50;;;9.20;99.90;;;;;;4974782;28;20252;-77
2021/03/04 00:32:20;;;;;;;33.23;21.80;;;9.20;99.90;;;;;;4974478;28;20214;-76
2021/03/04 00:34:48;;;;;;;33.27;20.07;;;9.20;99.90;;;;;;4974762;28;20308;-77
2021/03/04 00:37:14;;;;;;;28.93;20.83;;;9.20;99.90;;;;;;4974543;28;20633;-76
2021/03/04 00:39:40;;;;;;;36.70;19.57;;;9.20;99.90;;;;;;4974478;28;20677;-76
2021/03/04 00:42:08;;;;;;;27.17;20.17;;;9.20;99.90;;;;;;4974042;28;20268;-75
2021/03/04 00:44:35;;;;;;;45.23;19.70;;;9.20;99.90;;;;;;4974880;28;20248;-76
2021/03/04 00:47:01;;;;;;;37.77;20.60;;;9.30;99.90;;;;;;4974735;28;20292;-76
2021/03/04 00:49:27;;;;;;;41.23;21.00;;;9.30;99.90;;;;;;4974333;28;20268;-77
2021/03/04 00:51:55;;;;;;;25.13;19.97;;;9.20;99.90;;;;;;4974432;28;20280;-77
2021/03/04 00:54:21;;;;;;;31.87;22.33;;;9.20;99.90;;;;;;4973781;28;20214;-77
2021/03/04 00:56:48;;;;;;;25.00;19.83;;;9.30;99.90;;;;;;4974081;28;20209;-77
2021/03/04 00:59:14;;;;;;;32.90;20.60;;;9.20;99.90;;;;;;4973962;28;20209;-75
2021/03/04 01:01:41;;;;;;;28.20;21.17;;;9.30;99.90;;;;;;4974064;28;20244;-75
2021/03/04 01:04:07;;;;;;;37.83;20.97;;;9.30;99.90;;;;;;4973808;28;20341;-76
2021/03/04 01:06:34;;;;;;;31.57;20.07;;;9.30;99.90;;;;;;4974681;28;20213;-76
2021/03/04 01:09:01;;;;;;;26.63;20.63;;;9.20;99.90;;;;;;4974205;28;20205;-75
2021/03/04 01:11:27;;;;;;;30.43;20.10;;;9.30;99.90;;;;;;4973831;28;20213;-75
2021/03/04 01:13:54;;;;;;;30.13;20.67;;;9.30;99.90;;;;;;4974054;28;20209;-74
2021/03/04 01:16:20;;;;;;;35.57;20.67;;;9.30;99.90;;;;;;4973216;28;20210;-74
2021/03/04 01:18:47;;;;;;;34.20;20.13;;;9.30;99.90;;;;;;4974145;28;20221;-75
2021/03/04 01:21:13;;;;;;;36.77;21.90;;;9.30;99.90;;;;;;4973470;28;20271;-74
2021/03/04 01:23:39;;;;;;;37.57;23.27;;;9.30;99.90;;;;;;4973653;28;20674;-74
2021/03/04 01:26:07;;;;;;;30.27;19.87;;;9.20;99.90;;;;;;4973574;28;20654;-74
2021/03/04 01:28:33;;;;;;;46.73;23.30;;;9.20;99.90;;;;;;4974040;28;20205;-74
2021/03/04 01:31:00;;;;;;;32.33;22.53;;;9.20;99.90;;;;;;4974241;28;20213;-75
2021/03/04 01:33:26;;;;;;;38.90;22.10;;;9.20;99.90;;;;;;4971470;28;20217;-74
2021/03/04 01:35:53;;;;;;;38.60;22.67;;;9.20;99.90;;;;;;4973411;28;20253;-74
2021/03/04 01:38:19;;;;;;;35.57;21.33;;;9.20;99.90;;;;;;4972758;28;20596;-76
2021/03/04 01:40:46;;;;;;;38.73;21.33;;;9.20;99.90;;;;;;4973318;28;20225;-75
2021/03/04 01:43:13;;;;;;;47.17;22.67;;;9.20;99.90;;;;;;4973066;28;20214;-75
2021/03/04 01:45:40;;;;;;;44.83;23.03;;;9.30;99.90;;;;;;4973424;28;20580;-74
2021/03/04 01:48:08;;;;;;;36.63;22.13;;;9.30;99.90;;;;;;4973262;28;20569;-76
2021/03/04 01:50:35;;;;;;;39.37;20.43;;;9.30;99.90;;;;;;4973687;28;20219;-76
2021/03/04 01:53:01;;;;;;;30.00;20.63;;;9.40;99.90;;;;;;4973286;28;20625;-76
2021/03/04 01:55:28;;;;;;;27.70;19.67;;;9.30;99.90;;;;;;4972981;28;20202;-77
2021/03/04 01:57:55;;;;;;;30.90;19.07;;;9.30;99.90;;;;;;4973169;28;20217;-76
2021/03/04 02:00:24;;;;;;;32.27;19.60;;;9.40;99.90;;;;;;4972708;28;20643;-76
2021/03/04 02:02:50;;;;;;;35.37;19.43;;;9.40;99.90;;;;;;4973262;28;20214;-76
2021/03/04 02:05:18;;;;;;;33.97;22.53;;;9.40;99.90;;;;;;4972408;28;20220;-78
2021/03/04 02:07:54;;;;;;;30.43;19.73;;;9.40;99.90;;;;;;4972930;28;20201;-74
2021/03/04 02:10:30;;;;;;;33.00;19.90;;;9.50;99.90;;;;;;4972310;28;20705;-75
2021/03/04 02:13:03;;;;;;;35.43;20.07;;;9.60;99.90;;;;;;4972862;28;20744;-74
2021/03/04 02:15:35;;;;;;;34.63;19.33;;;9.70;99.90;;;;;;4972889;28;20619;-74
2021/03/04 02:18:05;;;;;;;26.70;18.17;;;9.70;99.90;;;;;;4973182;28;20268;-75
2021/03/04 02:20:36;;;;;;;28.47;18.23;;;9.70;99.90;;;;;;4972644;28;20292;-74
2021/03/04 02:23:17;;;;;;;30.80;18.83;;;9.80;99.90;;;;;;4973094;28;20217;-75
2021/03/04 02:25:54;;;;;;;25.90;18.23;;;9.90;99.90;;;;;;4972516;28;20206;-74
2021/03/04 02:28:26;;;;;;;33.73;19.00;;;9.90;99.90;;;;;;4972501;28;20275;-74
2021/03/04 02:30:54;;;;;;;30.67;17.47;;;9.90;99.90;;;;;;4972604;28;20209;-74
2021/03/04 02:33:23;;;;;;;27.87;18.43;;;9.90;99.90;;;;;;4972425;28;20213;-74
2021/03/04 02:35:51;;;;;;;28.70;18.30;;;9.90;99.90;;;;;;4972057;28;20605;-75
2021/03/04 02:38:19;;;;;;;29.13;17.83;;;10.00;99.90;;;;;;4972070;28;20213;-75
2021/03/04 02:40:48;;;;;;;25.20;16.87;;;10.00;99.90;;;;;;4972485;28;20240;-74
2021/03/04 02:43:17;;;;;;;23.70;16.70;;;10.00;99.90;;;;;;4971165;28;20202;-74
2021/03/04 02:45:45;;;;;;;29.70;18.80;;;10.00;99.90;;;;;;4972036;28;20205;-75
2021/03/04 02:48:13;;;;;;;31.27;17.00;;;10.10;99.90;;;;;;4971962;28;20201;-77
2021/03/04 02:50:41;;;;;;;28.83;18.20;;;10.10;99.90;;;;;;4972338;28;20216;-74
2021/03/04 02:53:08;;;;;;;26.23;16.97;;;10.10;99.90;;;;;;4971838;28;20213;-76
2021/03/04 02:55:35;;;;;;;34.07;20.07;;;10.10;99.90;;;;;;4972470;28;20201;-75
2021/03/04 02:58:05;;;;;;;23.50;15.97;;;10.10;99.90;;;;;;4972403;28;20279;-75
2021/03/04 03:00:33;;;;;;;24.47;16.77;;;10.10;99.90;;;;;;4972070;28;20241;-75
2021/03/04 03:03:01;;;;;;;31.07;17.37;;;10.20;99.90;;;;;;4972381;28;20213;-76
2021/03/04 03:05:31;;;;;;;30.77;16.73;;;10.20;99.90;;;;;;4957895;28;20241;-75
2021/03/04 03:07:59;;;;;;;30.93;16.90;;;10.20;99.90;;;;;;4972272;28;20210;-75
2021/03/04 03:10:26;;;;;;;29.87;17.20;;;10.20;99.90;;;;;;4971525;28;20240;-76
2021/03/04 03:12:56;;;;;;;26.87;16.07;;;10.20;99.90;;;;;;4971952;28;20210;-74
2021/03/04 03:15:25;;;;;;;25.33;16.60;;;10.20;99.90;;;;;;4971456;28;20210;-75
2021/03/04 03:17:52;;;;;;;26.20;17.67;;;10.20;99.90;;;;;;4972120;28;20209;-74
2021/03/04 03:20:21;;;;;;;25.43;15.80;;;10.20;99.90;;;;;;4971087;28;20229;-74
2021/03/04 03:22:49;;;;;;;27.27;17.30;;;10.20;99.90;;;;;;4972010;28;20214;-74
2021/03/04 03:25:16;;;;;;;22.57;15.93;;;10.20;99.90;;;;;;4970969;28;20700;-74
2021/03/04 03:27:44;;;;;;;26.50;17.23;;;10.20;99.90;;;;;;4972103;28;20212;-74
2021/03/04 03:30:13;;;;;;;27.83;18.70;;;10.20;99.90;;;;;;4971257;28;20205;-74
2021/03/04 03:32:42;;;;;;;26.23;16.43;;;10.30;99.90;;;;;;4971739;28;20256;-75
2021/03/04 03:35:10;;;;;;;33.20;18.40;;;10.30;99.90;;;;;;4971081;28;20690;-75
2021/03/04 03:37:38;;;;;;;24.50;16.50;;;10.30;99.90;;;;;;4971529;28;20220;-76
2021/03/04 03:40:06;;;;;;;29.67;17.30;;;10.20;99.90;;;;;;4971775;28;20559;-75
2021/03/04 03:42:34;;;;;;;21.90;15.57;;;10.20;99.90;;;;;;4971642;28;20265;-74
2021/03/04 03:45:02;;;;;;;30.10;16.80;;;10.30;99.90;;;;;;4971671;28;20210;-73
2021/03/04 03:47:32;;;;;;;32.00;17.63;;;10.30;99.90;;;;;;4971562;28;20232;-73
2021/03/04 03:49:58;;;;;;;23.33;14.97;;;10.30;99.90;;;;;;4971072;28;20665;-74
2021/03/04 03:52:25;;;;;;;23.13;16.47;;;10.30;99.90;;;;;;4971077;28;20276;-74
2021/03/04 03:54:53;;;;;;;26.00;16.43;;;10.30;99.90;;;;;;4971517;28;20209;-74
2021/03/04 03:57:21;;;;;;;27.70;15.40;;;10.30;99.90;;;;;;4971401;28;20216;-73
2021/03/04 03:59:48;;;;;;;26.37;17.33;;;10.30;99.90;;;;;;4974937;28;20249;-74
2021/03/04 04:02:15;;;;;;;25.40;15.80;;;10.30;99.90;;;;;;4974714;28;20292;-73
2021/03/04 04:04:42;;;;;;;24.87;17.83;;;10.30;99.90;;;;;;4975172;28;20213;-73
2021/03/04 04:07:12;;;;;;;24.00;16.00;;;10.30;99.90;;;;;;4974744;28;20634;-73
2021/03/04 04:09:39;;;;;;;29.47;15.97;;;10.30;99.90;;;;;;4975469;28;20241;-73
2021/03/04 04:12:08;;;;;;;24.20;17.20;;;10.30;99.90;;;;;;4975136;28;20205;-74
2021/03/04 04:14:35;;;;;;;25.27;16.70;;;10.20;99.90;;;;;;4975615;28;20590;-74
2021/03/04 04:17:02;;;;;;;20.87;14.37;;;10.20;99.90;;;;;;4975197;28;20213;-74
2021/03/04 04:19:29;;;;;;;22.73;16.00;;;10.20;99.90;;;;;;4974757;28;20264;-75
2021/03/04 04:21:56;;;;;;;22.17;15.73;;;10.20;99.90;;;;;;4974648;28;20252;-74
2021/03/04 04:24:23;;;;;;;28.60;15.83;;;10.30;99.90;;;;;;4974673;28;20216;-75
2021/03/04 04:26:49;;;;;;;29.50;16.73;;;10.20;99.90;;;;;;4975162;28;20210;-76
2021/03/04 04:29:17;;;;;;;23.50;16.77;;;10.20;99.90;;;;;;4974548;28;20209;-73
2021/03/04 04:31:43;;;;;;;26.70;16.90;;;10.20;99.90;;;;;;4974492;28;20633;-74
2021/03/04 04:34:10;;;;;;;23.67;16.80;;;10.30;99.90;;;;;;4974006;28;20700;-74
2021/03/04 04:36:37;;;;;;;25.03;16.27;;;10.30;99.90;;;;;;4974874;28;20241;-74
2021/03/04 04:39:04;;;;;;;30.20;17.90;;;10.30;99.90;;;;;;4975010;28;20209;-74
2021/03/04 04:41:30;;;;;;;27.30;17.50;;;10.30;99.90;;;;;;4974313;28;20233;-74
2021/03/04 04:43:56;;;;;;;22.93;16.53;;;10.30;99.90;;;;;;4974860;28;20206;-72
2021/03/04 04:46:24;;;;;;;24.97;15.60;;;10.30;99.90;;;;;;4973647;28;20752;-73
2021/03/04 04:48:50;;;;;;;25.33;17.40;;;10.30;99.90;;;;;;4974431;28;20236;-74
2021/03/04 04:51:17;;;;;;;25.33;15.40;;;10.30;99.90;;;;;;4974018;28;20210;-74
2021/03/04 04:53:44;;;;;;;24.03;17.73;;;10.30;99.90;;;;;;4974387;28;20558;-74
2021/03/04 04:56:10;;;;;;;29.47;19.13;;;10.30;99.90;;;;;;4974283;28;20213;-74
2021/03/04 04:58:37;;;;;;;24.43;16.80;;;10.30;99.90;;;;;;4974351;28;20213;-74
2021/03/04 05:01:04;;;;;;;23.60;17.40;;;10.30;99.90;;;;;;4974479;28;20229;-74
2021/03/04 05:03:31;;;;;;;33.10;19.03;;;10.30;99.90;;;;;;4973835;28;20206;-74
2021/03/04 05:05:57;;;;;;;32.40;18.43;;;10.30;99.90;;;;;;4974345;28;20213;-74
2021/03/04 05:08:24;;;;;;;31.77;17.27;;;10.30;99.90;;;;;;4973154;28;20217;-74
2021/03/04 05:10:50;;;;;;;28.70;16.97;;;10.20;99.90;;;;;;4974274;28;20217;-74
2021/03/04 05:13:17;;;;;;;25.63;16.63;;;10.30;99.90;;;;;;4973716;28;20216;-74
2021/03/04 05:15:43;;;;;;;25.30;16.97;;;10.30;99.90;;;;;;4974000;28;20201;-72
2021/03/04 05:18:10;;;;;;;26.87;17.83;;;10.30;99.90;;;;;;4973729;28;20237;-75
2021/03/04 05:20:37;;;;;;;23.10;16.93;;;10.30;99.90;;;;;;4973891;28;20229;-75
2021/03/04 05:23:04;;;;;;;27.07;16.33;;;10.30;99.90;;;;;;4974405;28;20213;-74
2021/03/04 05:25:30;;;;;;;24.60;16.17;;;10.30;99.90;;;;;;4973522;28;20248;-74
2021/03/04 05:27:56;;;;;;;24.00;14.93;;;10.30;99.90;;;;;;4973795;28;20590;-75
2021/03/04 05:30:23;;;;;;;29.13;16.33;;;10.30;99.90;;;;;;4972672;28;20209;-74
2021/03/04 05:32:50;;;;;;;22.43;16.50;;;10.30;99.90;;;;;;4974087;28;20210;-74
2021/03/04 05:35:16;;;;;;;25.07;16.77;;;10.30;99.90;;;;;;4973493;28;20209;-75
2021/03/04 05:37:44;;;;;;;23.27;16.80;;;10.30;99.90;;;;;;4973340;28;20213;-74
2021/03/04 05:40:11;;;;;;;27.07;15.93;;;10.30;99.90;;;;;;4973142;28;20217;-74
2021/03/04 05:42:41;;;;;;;24.50;14.97;;;10.30;99.90;;;;;;4973499;28;20237;-74
2021/03/04 05:45:11;;;;;;;31.13;16.73;;;10.30;99.90;;;;;;4960049;28;20675;-74
2021/03/04 05:47:39;;;;;;;23.13;16.80;;;10.40;99.90;;;;;;4973327;28;20218;-75
2021/03/04 05:50:08;;;;;;;24.60;15.47;;;10.40;99.90;;;;;;4973433;28;20650;-74
2021/03/04 05:52:36;;;;;;;29.67;16.20;;;10.40;99.90;;;;;;4973514;28;20214;-74
2021/03/04 05:55:05;;;;;;;25.33;14.87;;;10.40;99.90;;;;;;4972977;28;20273;-74
2021/03/04 05:57:31;;;;;;;29.37;16.77;;;10.40;99.90;;;;;;4972551;28;20692;-73
2021/03/04 05:59:58;;;;;;;21.83;16.17;;;10.40;99.90;;;;;;4973145;28;20217;-72
2021/03/04 06:02:25;;;;;;;26.20;16.00;;;10.40;99.90;;;;;;4973088;28;20237;-74
2021/03/04 06:04:52;;;;;;;23.97;15.00;;;10.40;99.90;;;;;;4973014;28;20276;-73
2021/03/04 06:07:18;;;;;;;32.47;16.77;;;10.40;99.90;;;;;;4972944;28;20601;-74
2021/03/04 06:09:45;;;;;;;29.30;17.13;;;10.40;99.90;;;;;;4972834;28;20209;-74
2021/03/04 06:12:13;;;;;;;23.40;16.07;;;10.40;99.90;;;;;;4972272;28;20212;-73
2021/03/04 06:14:39;;;;;;;20.67;15.10;;;10.40;99.90;;;;;;4973410;28;20209;-73
2021/03/04 06:17:17;;;;;;;25.20;17.33;;;10.40;99.90;;;;;;4972523;28;20206;-73
2021/03/04 06:19:52;;;;;;;28.77;15.60;;;10.50;99.90;;;;;;4972772;28;20232;-73
2021/03/04 06:22:26;;;;;;;27.30;17.43;;;10.50;99.90;;;;;;4971690;28;20257;-74
2021/03/04 06:24:53;;;;;;;23.60;15.57;;;10.40;99.90;;;;;;4972687;28;20205;-73
2021/03/04 06:27:31;;;;;;;24.33;16.80;;;10.50;99.90;;;;;;4972072;28;20681;-73
2021/03/04 06:29:59;;;;;;;26.97;16.27;;;10.50;99.90;;;;;;4972894;28;20245;-72
2021/03/04 06:32:26;;;;;;;25.00;15.63;;;10.50;99.90;;;;;;4972605;28;20213;-73
2021/03/04 06:35:08;;;;;;;26.30;16.17;;;10.50;99.90;;;;;;4970326;28;20217;-75
2021/03/04 06:37:36;;;;;;;23.77;16.60;;;10.50;99.90;;;;;;4972458;28;20241;-73
2021/03/04 06:40:05;;;;;;;24.93;15.50;;;10.50;99.90;;;;;;4972102;28;20210;-74
2021/03/04 06:42:41;;;;;;;31.00;15.40;;;10.50;99.90;;;;;;4972648;28;20233;-74
2021/03/04 06:45:09;;;;;;;29.63;17.77;;;10.50;99.90;;;;;;4959067;28;20213;-75
2021/03/04 06:47:35;;;;;;;28.60;15.37;;;10.60;99.90;;;;;;4972714;28;20214;-74
2021/03/04 06:50:02;;;;;;;27.00;16.87;;;10.60;99.90;;;;;;4972178;28;20213;-73
2021/03/04 06:52:30;;;;;;;26.83;15.50;;;10.60;99.90;;;;;;4972412;28;20210;-74
2021/03/04 06:55:07;;;;;;;25.33;16.17;;;10.70;99.90;;;;;;4972009;28;20619;-73
2021/03/04 06:57:34;;;;;;;29.00;17.43;;;10.60;99.90;;;;;;4972625;28;20260;-73
2021/03/04 07:00:01;;;;;;;25.97;14.83;;;10.70;99.90;;;;;;4971328;28;20240;-74
2021/03/04 07:02:30;;;;;;;29.17;17.03;;;10.70;99.90;;;;;;4972368;28;20233;-73
2021/03/04 07:04:58;;;;;;;28.57;17.27;;;10.70;99.90;;;;;;4972059;28;20214;-73
2021/03/04 07:07:25;;;;;;;24.20;16.20;;;10.70;99.90;;;;;;4972094;28;20213;-73
2021/03/04 07:09:53;;;;;;;24.73;16.90;;;10.70;99.90;;;;;;4971977;28;20213;-74
2021/03/04 07:12:21;;;;;;;27.60;16.57;;;10.70;99.90;;;;;;4971587;28;20202;-73
2021/03/04 07:14:48;;;;;;;26.57;15.43;;;10.70;99.90;;;;;;4972114;28;20213;-72
2021/03/04 07:17:17;;;;;;;23.60;16.40;;;10.80;99.90;;;;;;4971646;28;20232;-73
2021/03/04 07:19:49;;;;;;;27.40;16.63;;;10.80;99.90;;;;;;4971787;28;20209;-73
2021/03/04 07:22:17;;;;;;;26.47;14.93;;;10.80;99.90;;;;;;4969656;28;20312;-73
2021/03/04 07:24:45;;;;;;;33.60;18.53;;;10.80;99.90;;;;;;4970968;28;20209;-75
2021/03/04 07:27:15;;;;;;;21.87;16.60;;;10.90;99.90;;;;;;4970648;28;20232;-78
2021/03/04 07:29:42;;;;;;;29.10;15.37;;;11.00;99.90;;;;;;4971967;28;20201;-73
2021/03/04 07:32:10;;;;;;;26.87;15.47;;;10.90;99.90;;;;;;4970569;28;20220;-74
2021/03/04 07:34:39;;;;;;;25.87;16.97;;;11.00;99.90;;;;;;4970319;28;20202;-76
2021/03/04 07:37:06;;;;;;;25.60;16.60;;;11.00;99.90;;;;;;4969011;28;20260;-76
2021/03/04 07:39:34;;;;;;;25.07;17.10;;;11.00;99.90;;;;;;4970781;28;20205;-75
2021/03/04 07:42:01;;;;;;;29.63;18.17;;;11.10;99.90;;;;;;4969639;28;20239;-75
2021/03/04 07:44:29;;;;;;;28.73;15.40;;;11.20;99.90;;;;;;4967992;28;20260;-74
2021/03/04 07:46:58;;;;;;;24.17;15.53;;;11.20;99.90;;;;;;4968908;28;20206;-76
2021/03/04 07:49:34;;;;;;;25.13;14.70;;;11.20;99.90;;;;;;4968581;28;20209;-76
2021/03/04 07:52:10;;;;;;;26.90;15.90;;;11.30;99.90;;;;;;4969652;28;20205;-76
2021/03/04 07:54:38;;;;;;;27.53;16.00;;;11.30;99.90;;;;;;4969589;28;20264;-76
2021/03/04 07:57:09;;;;;;;30.47;15.80;;;11.20;99.90;;;;;;4971247;28;20214;-75
2021/03/04 07:59:36;;;;;;;24.73;15.70;;;11.30;99.90;;;;;;4968905;28;20206;-75
2021/03/04 08:02:04;;;;;;;20.60;15.40;;;11.40;99.90;;;;;;4970922;28;20241;-74
2021/03/04 08:04:31;;;;;;;25.73;14.70;;;11.50;99.90;;;;;;4971435;28;20213;-75
2021/03/04 08:06:58;;;;;;;28.90;16.73;;;11.40;99.90;;;;;;4971152;28;20209;-75
2021/03/04 08:09:30;;;;;;;25.57;15.70;;;11.30;99.90;;;;;;4971049;28;20205;-76
2021/03/04 08:12:10;;;;;;;25.67;13.77;;;11.40;99.90;;;;;;4970938;28;20206;-75
2021/03/04 08:14:38;;;;;;;26.37;15.07;;;11.60;99.90;;;;;;4968571;28;20204;-76
2021/03/04 08:17:05;;;;;;;23.70;15.07;;;11.50;99.90;;;;;;4970843;28;20256;-75
2021/03/04 08:19:33;;;;;;;32.37;14.83;;;11.60;99.90;;;;;;4971003;28;20673;-75
2021/03/04 08:22:08;;;;;;;30.13;15.50;;;11.70;99.90;;;;;;4970146;28;20245;-76
2021/03/04 08:24:37;;;;;;;25.83;14.93;;;11.70;99.90;;;;;;4970008;28;20253;-77
2021/03/04 08:27:05;;;;;;;22.63;15.20;;;11.60;99.90;;;;;;4970336;28;20209;-76
2021/03/04 08:29:32;;;;;;;20.00;13.73;;;11.60;99.90;;;;;;4969020;28;20221;-77
2021/03/04 08:32:02;;;;;;;23.93;15.13;;;11.70;99.90;;;;;;4969172;28;20683;-76
2021/03/04 08:34:36;;;;;;;20.97;14.53;;;11.70;99.90;;;;;;4970655;28;20670;-79
2021/03/04 08:37:03;;;;;;;21.87;14.50;;;11.70;99.90;;;;;;4970663;28;20232;-76
2021/03/04 08:39:31;;;;;;;20.13;14.47;;;11.70;99.90;;;;;;4960860;28;20226;-76
2021/03/04 08:42:04;;;;;;;22.63;14.60;;;11.70;99.90;;;;;;4969781;28;20287;-75
2021/03/04 08:44:31;;;;;;;22.93;14.10;;;11.70;99.90;;;;;;4972535;28;20221;-75
2021/03/04 08:46:57;;;;;;;27.00;15.17;;;11.90;99.90;;;;;;4974610;28;20213;-75
2021/03/04 08:49:24;;;;;;;22.07;14.07;;;11.80;99.90;;;;;;4974287;28;20288;-76
2021/03/04 08:51:51;;;;;;;27.83;13.73;;;11.90;99.90;;;;;;4972518;28;21225;-75
2021/03/04 08:54:23;;;;;;;29.60;15.57;;;11.90;99.90;;;;;;4970401;28;20205;-76
2021/03/04 08:56:54;;;;;;;28.17;16.10;;;12.00;99.90;;;;;;4969140;28;20704;-75
2021/03/04 08:59:22;;;;;;;17.97;12.83;;;12.30;99.90;;;;;;4968940;28;20729;-75
2021/03/04 09:01:49;;;;;;;28.43;13.87;;;12.30;99.90;;;;;;4971197;28;20248;-75
2021/03/04 09:04:19;;;;;;;20.17;14.27;;;12.10;99.90;;;;;;4971531;28;20697;-75
2021/03/04 09:06:46;;;;;;;26.47;14.80;;;11.90;99.90;;;;;;4972697;28;20197;-75
2021/03/04 09:09:24;;;;;;;20.80;13.40;;;12.10;99.90;;;;;;4972983;28;20622;-76
2021/03/04 09:11:51;;;;;;;23.37;13.53;;;12.20;99.90;;;;;;4969223;28;20213;-75
2021/03/04 09:14:24;;;;;;;23.20;14.43;;;12.20;99.90;;;;;;4973571;28;20252;-75
2021/03/04 09:16:52;;;;;;;27.13;16.17;;;12.20;99.90;;;;;;4965354;28;20206;-75
2021/03/04 09:19:29;;;;;;;29.93;15.87;;;12.30;99.90;;;;;;4973174;28;20248;-76
2021/03/04 09:21:56;;;;;;;24.50;14.07;;;12.50;99.90;;;;;;4967638;28;20708;-76
2021/03/04 09:24:23;;;;;;;29.20;15.27;;;12.70;99.90;;;;;;4972471;28;20213;-74
2021/03/04 09:26:51;;;;;;;24.90;14.87;;;12.80;99.90;;;;;;4972593;28;20202;-78
2021/03/04 09:29:19;;;;;;;20.40;13.83;;;12.80;99.90;;;;;;4966287;28;20600;-75
2021/03/04 09:31:54;;;;;;;19.27;13.20;;;12.80;99.90;;;;;;4973518;28;20678;-75
2021/03/04 09:34:30;;;;;;;23.37;14.07;;;12.90;99.90;;;;;;4973055;28;20201;-76
2021/03/04 09:37:04;;;;;;;21.30;14.63;;;12.80;99.90;;;;;;4973516;28;20276;-75
2021/03/04 09:39:40;;;;;;;24.73;14.80;;;12.90;99.90;;;;;;4966335;28;20224;-74
2021/03/04 09:42:07;;;;;;;23.38;13.07;;;13.20;99.90;;;;;;4973464;28;20241;-74
2021/03/04 09:44:44;;;;;;;17.17;13.43;;;13.20;99.90;;;;;;4973128;28;20681;-74
2021/03/04 09:47:17;;;;;;;27.23;14.70;;;13.00;99.90;;;;;;4973445;28;20224;-74
2021/03/04 09:49:44;;;;;;;20.30;12.68;;;13.10;99.90;;;;;;4973496;28;20209;-76
2021/03/04 09:52:21;;;;;;;20.70;13.35;;;13.10;99.90;;;;;;4973543;28;20209;-80
2021/03/04 09:54:48;;;;;;;22.15;14.13;;;13.20;99.90;;;;;;4973073;28;20209;-74
2021/03/04 09:57:18;;;;;;;21.33;12.80;;;13.20;99.90;;;;;;4973206;28;20217;-75
2021/03/04 09:59:48;;;;;;;23.85;13.20;;;13.10;99.90;;;;;;4973147;28;20210;-75
2021/03/04 10:02:17;;;;;;;23.67;14.13;;;13.50;99.90;;;;;;4972920;28;20221;-76
2021/03/04 10:04:54;;;;;;;24.58;13.15;;;13.40;99.90;;;;;;4972945;28;20228;-75
2021/03/04 10:07:24;;;;;;;31.38;12.38;;;13.50;99.90;;;;;;4960687;28;20209;-80
2021/03/04 10:09:50;;;;;;;22.17;12.35;;;13.40;99.90;;;;;;4973376;28;20217;-74
2021/03/04 10:12:16;;;;;;;29.30;12.73;;;14.20;99.90;;;;;;4959226;28;20752;-73
2021/03/04 10:14:44;;;;;;;21.10;12.65;;;14.30;99.90;;;;;;4972786;28;20943;-73
2021/03/04 10:17:11;;;;;;;26.70;14.52;;;14.30;99.90;;;;;;4972711;28;20206;-75
2021/03/04 10:19:39;;;;;;;18.17;12.52;;;14.00;99.90;;;;;;4973248;28;20252;-75
2021/03/04 10:22:06;;;;;;;17.65;11.48;;;14.30;99.90;;;;;;4972079;28;20292;-74
2021/03/04 10:24:33;;;;;;;19.20;11.90;;;15.00;99.90;;;;;;4973159;28;20296;-73
2021/03/04 10:26:59;;;;;;;22.98;13.38;;;15.80;99.90;;;;;;4972469;28;20205;-75
2021/03/04 10:29:27;;;;;;;18.08;10.85;;;16.20;99.90;;;;;;4972669;28;20260;-74
2021/03/04 10:31:53;;;;;;;18.33;11.27;;;17.40;99.90;;;;;;4972401;28;20217;-74
2021/03/04 10:34:20;;;;;;;23.50;11.73;;;17.80;99.90;;;;;;4971959;28;20748;-75
2021/03/04 10:36:48;;;;;;;17.60;10.68;;;19.10;99.90;;;;;;4971439;28;20226;-74
2021/03/04 10:39:15;;;;;;;18.20;12.32;;;18.90;99.90;;;;;;4972179;28;20214;-74
2021/03/04 10:41:42;;;;;;;16.67;10.95;;;16.40;99.90;;;;;;4972802;28;20619;-74
2021/03/04 10:44:09;;;;;;;18.73;11.38;;;16.20;99.90;;;;;;4972678;28;20228;-73
2021/03/04 10:46:36;;;;;;;21.15;11.98;;;15.10;99.90;;;;;;4972065;28;20717;-74
2021/03/04 10:49:03;;;;;;;23.83;12.55;;;15.30;99.90;;;;;;4971941;28;20090;-74
2021/03/04 10:51:30;;;;;;;19.88;12.52;;;15.10;99.90;;;;;;4972108;28;20222;-74
2021/03/04 10:53:57;;;;;;;20.10;13.93;;;15.30;99.90;;;;;;4972578;28;20206;-74
2021/03/04 10:56:24;;;;;;;21.48;11.65;;;14.90;99.90;;;;;;4972071;28;20589;-74
2021/03/04 10:58:50;;;;;;;20.70;12.82;;;15.40;99.90;;;;;;4972353;28;20260;-74
2021/03/04 11:01:17;;;;;;;21.20;11.75;;;15.30;99.90;;;;;;4971729;28;20233;-74
2021/03/04 11:03:44;;;;;;;23.13;11.35;;;15.50;99.90;;;;;;4972208;28;20296;-75
2021/03/04 11:06:12;;;;;;;25.30;14.07;;;15.60;99.90;;;;;;4972118;28;20212;-75
2021/03/04 11:08:38;;;;;;;18.52;10.27;;;15.70;99.90;;;;;;4971721;28;20217;-75
2021/03/04 11:11:05;;;;;;;24.10;13.00;;;15.90;99.90;;;;;;4971676;28;20225;-75
2021/03/04 11:13:32;;;;;;;24.23;13.18;;;15.70;99.90;;;;;;4972006;28;20213;-74
2021/03/04 11:15:59;;;;;;;21.20;11.43;;;15.80;99.90;;;;;;4966866;28;20216;-75
2021/03/04 11:18:25;;;;;;;20.75;11.13;;;15.90;99.90;;;;;;4971215;28;20264;-74
2021/03/04 11:20:52;;;;;;;28.75;12.57;;;15.70;99.90;;;;;;4971693;28;20568;-76
2021/03/04 11:23:18;;;;;;;23.83;11.13;;;16.00;99.90;;;;;;4971269;28;20709;-75
2021/03/04 11:25:46;;;;;;;22.10;13.23;;;16.00;99.90;;;;;;4970346;28;20206;-75
2021/03/04 11:28:13;;;;;;;20.10;12.52;;;16.20;99.90;;;;;;4968099;28;20217;-76
2021/03/04 11:30:40;;;;;;;23.98;12.07;;;16.30;99.90;;;;;;4969903;28;20212;-75
2021/03/04 11:33:07;;;;;;;26.67;11.85;;;16.20;99.90;;;;;;4971148;28;20217;-76
2021/03/04 11:35:33;;;;;;;24.23;12.60;;;16.00;99.90;;;;;;4971166;28;20221;-76
2021/03/04 11:38:00;;;;;;;26.20;12.13;;;15.80;99.90;;;;;;4971065;28;20225;-77
2021/03/04 11:40:26;;;;;;;21.48;13.05;;;16.20;99.90;;;;;;4971229;28;20209;-75
2021/03/04 11:42:53;;;;;;;19.48;11.27;;;16.20;99.90;;;;;;4971658;28;20245;-76
2021/03/04 11:45:21;;;;;;;18.85;10.88;;;16.10;99.90;;;;;;4970868;28;20213;-75
2021/03/04 11:47:47;;;;;;;19.45;10.38;;;16.10;99.90;;;;;;4971374;28;20636;-75
2021/03/04 11:50:14;;;;;;;17.70;11.02;;;16.40;99.90;;;;;;4971679;28;20700;-76
2021/03/04 11:52:40;;;;;;;18.52;10.18;;;16.30;99.90;;;;;;4968144;28;20201;-76
2021/03/04 11:55:09;;;;;;;22.55;10.32;;;16.40;99.90;;;;;;4970051;28;20209;-76
2021/03/04 11:57:36;;;;;;;20.25;11.50;;;16.60;99.90;;;;;;4969805;28;20225;-75
2021/03/04 12:00:04;;;;;;;25.48;11.52;;;16.60;99.90;;;;;;4969340;28;20238;-76
2021/03/04 12:02:31;;;;;;;16.17;9.95;;;16.60;99.90;;;;;;4971080;28;20229;-75
2021/03/04 12:04:57;;;;;;;18.15;9.00;;;17.10;99.90;;;;;;4971081;28;20214;-75
2021/03/04 12:07:24;;;;;;;25.73;11.07;;;17.20;99.90;;;;;;4971338;28;20572;-76
2021/03/04 12:09:50;;;;;;;19.08;10.43;;;16.70;99.90;;;;;;4971263;28;20583;-76
2021/03/04 12:12:17;;;;;;;22.02;10.48;;;16.90;99.90;;;;;;4962660;28;20229;-76
2021/03/04 12:14:43;;;;;;;19.63;10.20;;;16.70;99.90;;;;;;4971474;28;20229;-75
2021/03/04 12:17:10;;;;;;;27.02;10.48;;;17.00;99.90;;;;;;4970668;28;20252;-75
2021/03/04 12:19:37;;;;;;;21.05;9.75;;;16.80;99.90;;;;;;4972362;28;20210;-76
2021/03/04 12:22:03;;;;;;;23.95;9.88;;;16.80;99.90;;;;;;4974566;28;20241;-76
2021/03/04 12:24:31;;;;;;;18.55;10.27;;;17.00;99.90;;;;;;4975074;28;20216;-75
2021/03/04 12:26:58;;;;;;;18.80;9.63;;;17.10;99.90;;;;;;4974474;28;20205;-75
2021/03/04 12:29:24;;;;;;;21.02;10.68;;;16.90;99.90;;;;;;4975014;28;20216;-76
2021/03/04 12:31:51;;;;;;;18.80;9.18;;;17.10;99.90;;;;;;4974590;28;20678;-75